Flight Track Log - Related Links

Times and Time Zones

All times are in EDT time to prevent confusion due to time zone crossing. See the DAL1763 flight status page for this flight to view local times or setup timezone preferences in your user account.

Time Position Orientation Groundspeed Altitude Reporting Facility
EDT Latitude Longitude Course Direction KTS MPH feet Rate Location/Type
Fri 02:41:53 PM 38.8000 -77.0333 322° Northwest 192 221 1,800  Level Potomac TRACON
Fri 02:42:47 PM 38.7500 -77.0333 180° South 273 314 4,200 1,684 Climbing Potomac TRACON
Fri 02:43:47 PM 38.7167 -77.1167 243° Southwest 281 323 5,000 800 Climbing Potomac TRACON
Fri 02:44:00 PM 39.1208 -77.2854 339° North  Level FlightAware Approximate
Fri 02:44:47 PM 38.7167 -77.2167 270° West 286 329 5,800  Level Potomac TRACON
Fri 02:45:00 PM 39.2103 -77.3707 326° Northwest  Level FlightAware Approximate
Fri 02:45:47 PM 38.7833 -77.2833 322° Northwest 288 331 9,100  Level Potomac TRACON
Fri 02:46:00 PM 39.3061 -77.4515 328° Northwest  Level FlightAware Approximate
Fri 02:46:48 PM 38.8500 -77.3333 330° Northwest 311 358 11,200  Level Potomac TRACON
Fri 02:47:00 PM 39.4009 -77.5342 322° Northwest  Level FlightAware Approximate
Fri 02:47:42 PM 38.9333 -77.3833 335° Northwest 355 409 12,300  Level Potomac TRACON
Fri 02:50:04 PM 39.1603 -77.5350 333° Northwest 422 486 16,900 1,655 Climbing Washington Center
Fri 02:51:05 PM 39.2569 -77.6181 326° Northwest 417 480 17,900 1,488 Climbing Washington Center
Fri 02:52:05 PM 39.3556 -77.7039 326° Northwest 422 486 19,900 1,831 Climbing Washington Center
Fri 02:53:03 PM 39.4561 -77.7903 326° Northwest 428 493 21,500 1,639 Climbing Washington Center
Fri 02:55:08 PM 39.6039 -78.0772 304° West 433 498 24,900 1,686 Climbing Cleveland Center
Fri 02:56:08 PM 39.6486 -78.2239 292° West 438 504 26,700 1,850 Climbing Cleveland Center
Fri 02:57:08 PM 39.6914 -78.3736 290° West 438 504 28,600 1,650 Climbing Cleveland Center
Fri 02:58:08 PM 39.7336 -78.5153 291° West 438 504 30,000 700 Climbing Cleveland Center
Fri 02:59:08 PM 39.7736 -78.6572 290° West 427 491 30,000  Level Cleveland Center
Fri 03:00:08 PM 39.8092 -78.7886 289° West 427 491 30,000  Level Cleveland Center
Fri 03:01:08 PM 39.8489 -78.9308 290° West 422 486 30,000  Level Cleveland Center
Fri 03:02:08 PM 39.8944 -79.0733 293° West 427 491 30,000  Level Cleveland Center
Fri 03:03:08 PM 39.9339 -79.2131 290° West 427 491 30,000  Level Cleveland Center
Fri 03:04:08 PM 39.9792 -79.3586 292° West 427 491 30,000  Level Cleveland Center
Fri 03:05:08 PM 40.0431 -79.4875 303° West 427 491 30,000  Level Cleveland Center
Fri 03:06:08 PM 40.1089 -79.6194 303° West 427 491 30,000  Level Cleveland Center
Fri 03:07:08 PM 40.1744 -79.7461 304° West 427 491 30,000  Level Cleveland Center
Fri 03:08:08 PM 40.2400 -79.8786 303° West 432 497 30,000  Level Cleveland Center
Fri 03:09:08 PM 40.3075 -80.0086 304° West 432 497 30,000  Level Cleveland Center
Fri 03:10:08 PM 40.3706 -80.1417 302° West 432 497 30,000  Level Cleveland Center
Fri 03:11:08 PM 40.4378 -80.2694 305° West 432 497 30,000  Level Cleveland Center
Fri 03:12:08 PM 40.5111 -80.4111 304° West 439 505 30,000  Level Cleveland Center
Fri 03:13:08 PM 40.5736 -80.5394 303° West 439 505 30,000  Level Cleveland Center
Fri 03:14:08 PM 40.6361 -80.6733 302° West 434 499 30,000  Level Cleveland Center
Fri 03:15:08 PM 40.7047 -80.7994 306° West 427 491 30,000  Level Cleveland Center
Fri 03:16:08 PM 40.7669 -80.9286 302° West 427 491 30,000  Level Cleveland Center
Fri 03:17:08 PM 40.8311 -81.0633 302° West 433 498 30,000  Level Cleveland Center
Fri 03:18:08 PM 40.8869 -81.1983 299° West 427 491 30,000  Level Cleveland Center
Fri 03:19:08 PM 40.9319 -81.3253 295° West 421 484 30,000  Level Cleveland Center
Fri 03:20:08 PM 40.9831 -81.4689 295° West 426 490 30,000  Level Cleveland Center
Fri 03:21:08 PM 41.0319 -81.6069 295° West 421 484 30,000  Level Cleveland Center
Fri 03:22:08 PM 41.0806 -81.7511 294° West 421 484 30,000  Level Cleveland Center
Fri 03:23:08 PM 41.1394 -81.9039 297° West 421 484 30,000  Level Cleveland Center
Fri 03:24:08 PM 41.1897 -82.0456 295° West 421 484 30,000  Level Cleveland Center
Fri 03:25:08 PM 41.2336 -82.1900 292° West 426 490 30,000  Level Cleveland Center
Fri 03:26:08 PM 41.2858 -82.3322 296° West 431 496 30,000  Level Cleveland Center
Fri 03:27:08 PM 41.3336 -82.4775 294° West 424 488 30,000  Level Cleveland Center
Fri 03:28:08 PM 41.3831 -82.6200 295° West 424 488 30,000  Level Cleveland Center
Fri 03:29:08 PM 41.4267 -82.7514 294° West 424 488 30,000 400 Level Cleveland Center
Fri 03:30:08 PM 41.4758 -82.9000 294° West 424 488 30,800 1,000 Climbing Cleveland Center
Fri 03:31:08 PM 41.5250 -83.0433 295° West 424 488 32,000 600 Climbing Cleveland Center
Fri 03:32:08 PM 41.5756 -83.2008 293° West 424 488 32,000  Level Cleveland Center
Fri 03:33:08 PM 41.6244 -83.3444 295° West 424 488 32,000  Level Cleveland Center
Fri 03:34:08 PM 41.6728 -83.4911 294° West 424 488 32,000  Level Cleveland Center
Fri 03:35:08 PM 41.7211 -83.6378 294° West 424 488 32,000  Level Cleveland Center
Fri 03:36:08 PM 41.7672 -83.7850 293° West 424 488 32,000  Level Cleveland Center
Fri 03:37:08 PM 41.8153 -83.9294 294° West 424 488 32,000  Level Cleveland Center
Fri 03:38:08 PM 41.8631 -84.0769 294° West 424 488 32,000  Level Cleveland Center
Fri 03:39:08 PM 41.9106 -84.2219 294° West 424 488 32,000  Level Cleveland Center
Fri 03:40:19 PM 41.9650 -84.3811 295° West 425 489 32,000  Level Chicago Center
Fri 03:41:21 PM 42.0108 -84.5275 293° West 425 489 32,000  Level Chicago Center
Fri 03:42:23 PM 42.0569 -84.6753 293° West 428 493 32,000  Level Chicago Center
Fri 03:43:25 PM 42.1033 -84.8219 293° West 427 491 32,000  Level Chicago Center
Fri 03:44:27 PM 42.1581 -85.0003 293° West 430 495 32,000  Level Chicago Center
Fri 03:45:29 PM 42.2036 -85.1478 293° West 428 493 32,000  Level Chicago Center
Fri 03:46:31 PM 42.2494 -85.2950 293° West 427 491 32,000  Level Chicago Center
Fri 03:47:33 PM 42.2947 -85.4436 292° West 428 493 32,000  Level Chicago Center
Fri 03:48:36 PM 42.3397 -85.5928 292° West 428 493 32,000  Level Chicago Center
Fri 03:49:38 PM 42.3858 -85.7397 293° West 425 489 32,000  Level Chicago Center
Fri 03:50:40 PM 42.4403 -85.9206 292° West 429 494 32,000  Level Chicago Center
Fri 03:51:42 PM 42.4953 -86.0656 297° West 435 501 32,000  Level Chicago Center
Fri 03:52:44 PM 42.5553 -86.2053 300° West 428 493 32,000  Level Chicago Center
Fri 03:53:46 PM 42.6169 -86.3489 300° West 436 502 32,000  Level Chicago Center
Fri 03:54:48 PM 42.6753 -86.4856 300° West 421 484 32,000  Level Chicago Center
Fri 03:55:50 PM 42.7358 -86.6242 301° West 423 487 32,000  Level Chicago Center
Fri 03:56:52 PM 42.7953 -86.7647 300° West 428 493 32,000  Level Chicago Center
Fri 03:57:54 PM 42.8650 -86.9317 300° West 423 487 32,000  Level Chicago Center
Fri 03:58:56 PM 42.9236 -87.0714 300° West 425 489 32,000  Level Chicago Center
Fri 03:59:59 PM 42.9822 -87.2111 300° West 425 489 32,000  Level Chicago Center
Fri 04:01:01 PM 43.0414 -87.3522 300° West 428 493 32,000  Level Chicago Center
Fri 04:02:03 PM 43.1075 -87.5111 300° West 426 490 32,000  Level Chicago Center
Fri 04:03:05 PM 43.1667 -87.6550 299° West 433 498 32,000  Level Chicago Center
Fri 04:04:07 PM 43.2261 -87.7972 300° West 430 495 32,000  Level Chicago Center
Fri 04:05:09 PM 43.2839 -87.9400 299° West 428 493 32,000  Level Chicago Center
Fri 04:06:11 PM 43.3422 -88.0833 299° West 427 491 32,000  Level Chicago Center
Fri 04:07:13 PM 43.4094 -88.2522 299° West 432 497 32,000  Level Chicago Center
Fri 04:08:15 PM 43.4619 -88.3847 299° West 435 501 32,000  Level Chicago Center
Fri 04:09:17 PM 43.5269 -88.5450 299° West 444 511 32,000  Level Chicago Center
Fri 04:10:19 PM 43.5906 -88.7103 298° West 436 502 32,000  Level Chicago Center
Fri 04:11:22 PM 43.6481 -88.8567 299° West 437 503 32,000  Level Chicago Center
Fri 04:12:24 PM 43.7056 -89.0044 298° West 438 504 32,000  Level Chicago Center
Fri 04:13:26 PM 43.7642 -89.1536 299° West 441 507 32,000  Level Chicago Center
Fri 04:14:28 PM 43.8225 -89.3025 299° West 441 507 32,000  Level Chicago Center
Fri 04:15:30 PM 43.8903 -89.4786 298° West 443 510 32,000  Level Chicago Center
Fri 04:16:32 PM 43.9503 -89.6261 300° West 441 507 32,000  Level Chicago Center
Fri 04:17:34 PM 44.0147 -89.7736 301° West 446 513 32,000  Level Chicago Center
Fri 04:18:36 PM 44.0778 -89.9197 301° West 443 510 32,000  Level Chicago Center
Fri 04:19:38 PM 44.1397 -90.0681 300° West 442 509 32,000  Level Chicago Center
Fri 04:20:13 PM 44.1811 -90.1669 300° West 444 511 32,000  Level Minneapolis Center
Fri 04:21:15 PM 44.2431 -90.3161 300° West 444 511 32,000  Level Minneapolis Center
Fri 04:22:17 PM 44.3058 -90.4633 301° West 443 510 32,000  Level Minneapolis Center
Fri 04:23:20 PM 44.3672 -90.6111 300° West 442 509 32,000  Level Minneapolis Center
Fri 04:24:22 PM 44.4411 -90.7872 300° West 446 513 32,000  Level Minneapolis Center
Fri 04:25:24 PM 44.4956 -90.9181 300° West 449 517 32,000  Level Minneapolis Center
Fri 04:26:26 PM 44.5694 -91.0975 300° West 446 513 32,000 -726 Level Minneapolis Center
Fri 04:27:28 PM 44.6308 -91.2467 300° West 445 512 30,500 -2,274 Descending Minneapolis Center
Fri 04:28:30 PM 44.6922 -91.3981 300° West 446 513 27,300 -2,806 Descending Minneapolis Center
Fri 04:29:32 PM 44.7533 -91.5458 300° West 443 510 24,700 -2,468 Descending Minneapolis Center
Fri 04:30:34 PM 44.8103 -91.6892 299° West 429 494 22,200 -2,710 Descending Minneapolis Center
Fri 04:31:36 PM 44.8769 -91.8544 300° West 412 474 19,100 -2,758 Descending Minneapolis Center
Fri 04:32:38 PM 44.9308 -91.9917 299° West 400 460 16,500 -2,419 Descending Minneapolis Center
Fri 04:33:40 PM 44.9828 -92.1228 299° West 388 447 14,100 -2,274 Descending Minneapolis Center
Fri 04:34:42 PM 45.0311 -92.2475 299° West 368 423 11,800 -1,500 Descending Minneapolis Center
Fri 04:35:44 PM 45.0336 -92.3806 272° West 348 400 11,000 -387 Descending Minneapolis Center
Fri 04:36:46 PM 45.0156 -92.4967 258° West 304 350 11,000  Level Minneapolis Center
Fri 04:37:48 PM 44.9903 -92.6553 257° West 354 407 11,000  Level Minneapolis Center
Fri 04:38:51 PM 44.9692 -92.7917 258° West 357 411 11,000 -432 Level Minneapolis Center
Fri 04:39:53 PM 44.9483 -92.9181 257° West 336 387 10,100 -1,016 Descending Minneapolis Center
Fri 04:40:55 PM 44.9308 -93.0267 257° West 293 337 8,900 -1,065 Descending Minneapolis Center
Fri 04:41:57 PM 44.9492 -93.1261 285° West 283 326 7,900 -1,452 Descending Minneapolis Center
Fri 04:42:59 PM 44.9978 -93.2353 302° West 275 316 5,900 -1,887 Descending Minneapolis Center
Fri 04:44:01 PM 45.0381 -93.3186 304° West 262 302 4,000 -919 Descending Minneapolis Center
Fri 04:45:03 PM 45.0278 -93.3908 259° West 228 262 4,000 -339 Level Minneapolis Center
Fri 04:46:05 PM 44.9700 -93.3589 159° South 228 262 3,300 -726 Descending Minneapolis Center
Fri 04:47:07 PM 44.9275 -93.3019 137° Southeast 215 247 2,500 -1,065 Descending Minneapolis Center
Fri 04:48:09 PM 44.8981 -93.2328 121° Southeast 167 192 1,100 -1,355 Descending Minneapolis Center

Login

Don't have an account? Register now (free) for customized features, flight alerts, and more!